sensor_id;sensor_type;location;lat;lon;timestamp;temperature;humidity
14236;DHT22;7202;50.718;7.072;2022-11-06T00:00:45;9.10;99.90
14236;DHT22;7202;50.718;7.072;2022-11-06T00:03:13;9.00;99.90
14236;DHT22;7202;50.718;7.072;2022-11-06T00:05:42;9.00;99.90
14236;DHT22;7202;50.718;7.072;2022-11-06T00:08:32;9.00;99.90
14236;DHT22;7202;50.718;7.072;2022-11-06T00:11:02;9.00;99.90
14236;DHT22;7202;50.718;7.072;2022-11-06T00:13:35;9.00;99.90
14236;DHT22;7202;50.718;7.072;2022-11-06T00:16:04;9.00;99.90
14236;DHT22;7202;50.718;7.072;2022-11-06T00:18:34;9.00;99.90
14236;DHT22;7202;50.718;7.072;2022-11-06T00:21:06;9.00;99.90
14236;DHT22;7202;50.718;7.072;2022-11-06T00:23:36;9.00;99.90
14236;DHT22;7202;50.718;7.072;2022-11-06T00:26:06;9.00;99.90
14236;DHT22;7202;50.718;7.072;2022-11-06T00:28:35;9.00;99.90
14236;DHT22;7202;50.718;7.072;2022-11-06T00:31:05;9.00;99.90
14236;DHT22;7202;50.718;7.072;2022-11-06T00:33:35;9.00;99.90
14236;DHT22;7202;50.718;7.072;2022-11-06T00:36:04;9.00;99.90
14236;DHT22;7202;50.718;7.072;2022-11-06T00:38:34;9.00;99.90
14236;DHT22;7202;50.718;7.072;2022-11-06T00:41:05;9.10;99.90
14236;DHT22;7202;50.718;7.072;2022-11-06T00:43:34;9.00;99.90
14236;DHT22;7202;50.718;7.072;2022-11-06T00:46:04;9.00;99.90
14236;DHT22;7202;50.718;7.072;2022-11-06T00:48:33;9.00;99.90
14236;DHT22;7202;50.718;7.072;2022-11-06T00:51:06;9.00;99.90
14236;DHT22;7202;50.718;7.072;2022-11-06T00:53:35;9.00;99.90
14236;DHT22;7202;50.718;7.072;2022-11-06T00:56:08;9.00;99.90
14236;DHT22;7202;50.718;7.072;2022-11-06T00:58:38;9.00;99.90
14236;DHT22;7202;50.718;7.072;2022-11-06T01:01:08;9.00;99.90
14236;DHT22;7202;50.718;7.072;2022-11-06T01:03:37;9.00;99.90
14236;DHT22;7202;50.718;7.072;2022-11-06T01:06:07;9.00;99.90
14236;DHT22;7202;50.718;7.072;2022-11-06T01:08:36;8.90;99.90
14236;DHT22;7202;50.718;7.072;2022-11-06T01:11:10;8.80;99.90
14236;DHT22;7202;50.718;7.072;2022-11-06T01:13:40;8.80;99.90
14236;DHT22;7202;50.718;7.072;2022-11-06T01:16:10;8.70;99.90
14236;DHT22;7202;50.718;7.072;2022-11-06T01:18:41;8.70;99.90
14236;DHT22;7202;50.718;7.072;2022-11-06T01:21:12;8.70;99.90
14236;DHT22;7202;50.718;7.072;2022-11-06T01:23:42;8.60;99.90
14236;DHT22;7202;50.718;7.072;2022-11-06T01:26:13;8.60;99.90
14236;DHT22;7202;50.718;7.072;2022-11-06T01:29:00;8.50;99.90
14236;DHT22;7202;50.718;7.072;2022-11-06T01:31:30;8.50;99.90
14236;DHT22;7202;50.718;7.072;2022-11-06T01:34:00;8.40;99.90
14236;DHT22;7202;50.718;7.072;2022-11-06T01:36:30;8.40;99.90
14236;DHT22;7202;50.718;7.072;2022-11-06T01:39:01;8.30;99.90
14236;DHT22;7202;50.718;7.072;2022-11-06T01:41:34;8.30;99.90
14236;DHT22;7202;50.718;7.072;2022-11-06T01:44:05;8.30;99.90
14236;DHT22;7202;50.718;7.072;2022-11-06T01:46:36;8.20;99.90
14236;DHT22;7202;50.718;7.072;2022-11-06T01:49:06;8.20;99.90
14236;DHT22;7202;50.718;7.072;2022-11-06T01:51:39;8.10;99.90
14236;DHT22;7202;50.718;7.072;2022-11-06T01:54:10;8.10;99.90
14236;DHT22;7202;50.718;7.072;2022-11-06T01:56:43;8.10;99.90
14236;DHT22;7202;50.718;7.072;2022-11-06T01:59:16;8.00;99.90
14236;DHT22;7202;50.718;7.072;2022-11-06T02:01:45;8.00;99.90
14236;DHT22;7202;50.718;7.072;2022-11-06T02:04:17;7.90;99.90
14236;DHT22;7202;50.718;7.072;2022-11-06T02:06:47;7.90;99.90
14236;DHT22;7202;50.718;7.072;2022-11-06T02:09:16;7.90;99.90
14236;DHT22;7202;50.718;7.072;2022-11-06T02:11:57;7.90;99.90
14236;DHT22;7202;50.718;7.072;2022-11-06T02:14:33;7.90;99.90
14236;DHT22;7202;50.718;7.072;2022-11-06T02:17:08;7.90;99.90
14236;DHT22;7202;50.718;7.072;2022-11-06T02:19:51;7.90;99.90
14236;DHT22;7202;50.718;7.072;2022-11-06T02:22:30;7.90;99.90
14236;DHT22;7202;50.718;7.072;2022-11-06T02:25:15;7.90;99.90
14236;DHT22;7202;50.718;7.072;2022-11-06T02:27:53;7.90;99.90
14236;DHT22;7202;50.718;7.072;2022-11-06T02:30:23;8.00;99.90
14236;DHT22;7202;50.718;7.072;2022-11-06T02:32:54;7.90;99.90
14236;DHT22;7202;50.718;7.072;2022-11-06T02:35:27;8.00;99.90
14236;DHT22;7202;50.718;7.072;2022-11-06T02:38:00;8.00;99.90
14236;DHT22;7202;50.718;7.072;2022-11-06T02:40:33;8.00;99.90
14236;DHT22;7202;50.718;7.072;2022-11-06T02:43:06;8.00;99.90
14236;DHT22;7202;50.718;7.072;2022-11-06T02:45:39;8.10;99.90
14236;DHT22;7202;50.718;7.072;2022-11-06T02:48:09;8.10;99.90
14236;DHT22;7202;50.718;7.072;2022-11-06T02:50:43;8.20;99.90
14236;DHT22;7202;50.718;7.072;2022-11-06T02:53:16;8.20;99.90
14236;DHT22;7202;50.718;7.072;2022-11-06T02:55:48;8.20;99.90
14236;DHT22;7202;50.718;7.072;2022-11-06T02:58:21;8.30;99.90
14236;DHT22;7202;50.718;7.072;2022-11-06T03:00:56;8.40;99.90
14236;DHT22;7202;50.718;7.072;2022-11-06T03:03:29;8.30;99.90
14236;DHT22;7202;50.718;7.072;2022-11-06T03:06:02;8.40;99.90
14236;DHT22;7202;50.718;7.072;2022-11-06T03:08:34;8.40;99.90
14236;DHT22;7202;50.718;7.072;2022-11-06T03:11:12;8.40;99.90
14236;DHT22;7202;50.718;7.072;2022-11-06T03:13:49;8.40;99.90
14236;DHT22;7202;50.718;7.072;2022-11-06T03:16:35;8.30;99.90
14236;DHT22;7202;50.718;7.072;2022-11-06T03:19:07;8.30;99.90
14236;DHT22;7202;50.718;7.072;2022-11-06T03:21:49;8.30;99.90
14236;DHT22;7202;50.718;7.072;2022-11-06T03:24:26;8.30;99.90
14236;DHT22;7202;50.718;7.072;2022-11-06T03:26:58;8.30;99.90
14236;DHT22;7202;50.718;7.072;2022-11-06T03:29:35;8.20;99.90
14236;DHT22;7202;50.718;7.072;2022-11-06T03:32:10;8.30;99.90
14236;DHT22;7202;50.718;7.072;2022-11-06T03:34:47;8.20;99.90
14236;DHT22;7202;50.718;7.072;2022-11-06T03:37:23;8.20;99.90
14236;DHT22;7202;50.718;7.072;2022-11-06T03:39:53;8.20;99.90
14236;DHT22;7202;50.718;7.072;2022-11-06T03:42:26;8.20;99.90
14236;DHT22;7202;50.718;7.072;2022-11-06T03:45:00;8.20;99.90
14236;DHT22;7202;50.718;7.072;2022-11-06T03:47:32;8.20;99.90
14236;DHT22;7202;50.718;7.072;2022-11-06T03:50:06;8.10;99.90
14236;DHT22;7202;50.718;7.072;2022-11-06T03:52:39;8.10;99.90
14236;DHT22;7202;50.718;7.072;2022-11-06T03:55:13;8.10;99.90
14236;DHT22;7202;50.718;7.072;2022-11-06T03:57:46;8.00;99.90
14236;DHT22;7202;50.718;7.072;2022-11-06T04:00:19;8.00;99.90
14236;DHT22;7202;50.718;7.072;2022-11-06T04:02:50;8.00;99.90
14236;DHT22;7202;50.718;7.072;2022-11-06T04:05:34;8.00;99.90
14236;DHT22;7202;50.718;7.072;2022-11-06T04:08:04;8.00;99.90
14236;DHT22;7202;50.718;7.072;2022-11-06T04:10:59;7.90;99.90
14236;DHT22;7202;50.718;7.072;2022-11-06T04:13:48;7.90;99.90
14236;DHT22;7202;50.718;7.072;2022-11-06T04:16:32;7.90;99.90
14236;DHT22;7202;50.718;7.072;2022-11-06T04:19:02;7.90;99.90
14236;DHT22;7202;50.718;7.072;2022-11-06T04:21:47;7.80;99.90
14236;DHT22;7202;50.718;7.072;2022-11-06T04:24:26;7.80;99.90
14236;DHT22;7202;50.718;7.072;2022-11-06T04:27:26;7.80;99.90
14236;DHT22;7202;50.718;7.072;2022-11-06T04:30:04;7.80;99.90
14236;DHT22;7202;50.718;7.072;2022-11-06T04:32:48;7.70;99.90
14236;DHT22;7202;50.718;7.072;2022-11-06T04:35:31;7.70;99.90
14236;DHT22;7202;50.718;7.072;2022-11-06T04:38:07;7.70;99.90
14236;DHT22;7202;50.718;7.072;2022-11-06T04:40:51;7.70;99.90
14236;DHT22;7202;50.718;7.072;2022-11-06T04:43:25;7.60;99.90
14236;DHT22;7202;50.718;7.072;2022-11-06T04:45:57;7.60;99.90
14236;DHT22;7202;50.718;7.072;2022-11-06T04:48:29;7.60;99.90
14236;DHT22;7202;50.718;7.072;2022-11-06T04:51:01;7.60;99.90
14236;DHT22;7202;50.718;7.072;2022-11-06T04:53:31;7.60;99.90
14236;DHT22;7202;50.718;7.072;2022-11-06T04:56:05;7.60;99.90
14236;DHT22;7202;50.718;7.072;2022-11-06T04:58:36;7.60;99.90
14236;DHT22;7202;50.718;7.072;2022-11-06T05:01:05;7.60;99.90
14236;DHT22;7202;50.718;7.072;2022-11-06T05:03:35;7.60;99.90
14236;DHT22;7202;50.718;7.072;2022-11-06T05:06:05;7.50;99.90
14236;DHT22;7202;50.718;7.072;2022-11-06T05:08:33;7.50;99.90
14236;DHT22;7202;50.718;7.072;2022-11-06T05:11:02;7.50;99.90
14236;DHT22;7202;50.718;7.072;2022-11-06T05:13:30;7.50;99.90
14236;DHT22;7202;50.718;7.072;2022-11-06T05:15:59;7.50;99.90
14236;DHT22;7202;50.718;7.072;2022-11-06T05:18:28;7.40;99.90
14236;DHT22;7202;50.718;7.072;2022-11-06T05:20:59;7.40;99.90
14236;DHT22;7202;50.718;7.072;2022-11-06T05:23:45;7.40;99.90
14236;DHT22;7202;50.718;7.072;2022-11-06T05:26:14;7.40;99.90
14236;DHT22;7202;50.718;7.072;2022-11-06T05:28:43;7.40;99.90
14236;DHT22;7202;50.718;7.072;2022-11-06T05:31:11;7.40;99.90
14236;DHT22;7202;50.718;7.072;2022-11-06T05:33:40;7.30;99.90
14236;DHT22;7202;50.718;7.072;2022-11-06T05:36:10;7.30;99.90
14236;DHT22;7202;50.718;7.072;2022-11-06T05:38:38;7.30;99.90
14236;DHT22;7202;50.718;7.072;2022-11-06T05:41:07;7.30;99.90
14236;DHT22;7202;50.718;7.072;2022-11-06T05:43:36;7.30;99.90
14236;DHT22;7202;50.718;7.072;2022-11-06T05:46:04;7.50;99.90
14236;DHT22;7202;50.718;7.072;2022-11-06T05:48:50;7.40;99.90
14236;DHT22;7202;50.718;7.072;2022-11-06T05:51:20;7.40;99.90
14236;DHT22;7202;50.718;7.072;2022-11-06T05:53:48;7.40;99.90
14236;DHT22;7202;50.718;7.072;2022-11-06T05:56:17;7.40;99.90
14236;DHT22;7202;50.718;7.072;2022-11-06T05:58:46;7.40;99.90
14236;DHT22;7202;50.718;7.072;2022-11-06T06:01:14;7.40;99.90
14236;DHT22;7202;50.718;7.072;2022-11-06T06:03:43;7.50;99.90
14236;DHT22;7202;50.718;7.072;2022-11-06T06:06:12;7.40;99.90
14236;DHT22;7202;50.718;7.072;2022-11-06T06:08:41;7.40;99.90
14236;DHT22;7202;50.718;7.072;2022-11-06T06:11:10;7.40;99.90
14236;DHT22;7202;50.718;7.072;2022-11-06T06:13:38;7.40;99.90
14236;DHT22;7202;50.718;7.072;2022-11-06T06:16:07;7.40;99.90
14236;DHT22;7202;50.718;7.072;2022-11-06T06:18:35;7.40;99.90
14236;DHT22;7202;50.718;7.072;2022-11-06T06:21:04;7.30;99.90
14236;DHT22;7202;50.718;7.072;2022-11-06T06:23:33;7.30;99.90
14236;DHT22;7202;50.718;7.072;2022-11-06T06:26:03;7.30;99.90
14236;DHT22;7202;50.718;7.072;2022-11-06T06:28:32;7.20;99.90
14236;DHT22;7202;50.718;7.072;2022-11-06T06:31:02;7.20;99.90
14236;DHT22;7202;50.718;7.072;2022-11-06T06:33:33;7.20;99.90
14236;DHT22;7202;50.718;7.072;2022-11-06T06:36:03;7.20;99.90
14236;DHT22;7202;50.718;7.072;2022-11-06T06:38:32;7.10;99.90
14236;DHT22;7202;50.718;7.072;2022-11-06T06:41:00;7.20;99.90
14236;DHT22;7202;50.718;7.072;2022-11-06T06:43:31;7.10;99.90
14236;DHT22;7202;50.718;7.072;2022-11-06T06:46:02;7.10;99.90
14236;DHT22;7202;50.718;7.072;2022-11-06T06:48:34;7.10;99.90
14236;DHT22;7202;50.718;7.072;2022-11-06T06:51:03;7.10;99.90
14236;DHT22;7202;50.718;7.072;2022-11-06T06:53:34;7.10;99.90
14236;DHT22;7202;50.718;7.072;2022-11-06T06:56:03;7.10;99.90
14236;DHT22;7202;50.718;7.072;2022-11-06T06:58:34;7.10;99.90
14236;DHT22;7202;50.718;7.072;2022-11-06T07:01:04;7.10;99.90
14236;DHT22;7202;50.718;7.072;2022-11-06T07:03:39;7.10;99.90
14236;DHT22;7202;50.718;7.072;2022-11-06T07:06:08;7.10;99.90
14236;DHT22;7202;50.718;7.072;2022-11-06T07:08:36;7.10;99.90
14236;DHT22;7202;50.718;7.072;2022-11-06T07:11:06;7.10;99.90
14236;DHT22;7202;50.718;7.072;2022-11-06T07:13:37;7.10;99.90
14236;DHT22;7202;50.718;7.072;2022-11-06T07:16:07;7.20;99.90
14236;DHT22;7202;50.718;7.072;2022-11-06T07:18:37;7.20;99.90
14236;DHT22;7202;50.718;7.072;2022-11-06T07:21:07;7.20;99.90
14236;DHT22;7202;50.718;7.072;2022-11-06T07:23:37;7.20;99.90
14236;DHT22;7202;50.718;7.072;2022-11-06T07:26:06;7.20;99.90
14236;DHT22;7202;50.718;7.072;2022-11-06T07:28:35;7.30;99.90
14236;DHT22;7202;50.718;7.072;2022-11-06T07:31:06;7.30;99.90
14236;DHT22;7202;50.718;7.072;2022-11-06T07:33:35;7.40;99.90
14236;DHT22;7202;50.718;7.072;2022-11-06T07:36:04;7.40;99.90
14236;DHT22;7202;50.718;7.072;2022-11-06T07:38:33;7.40;99.90
14236;DHT22;7202;50.718;7.072;2022-11-06T07:41:03;7.50;99.90
14236;DHT22;7202;50.718;7.072;2022-11-06T07:43:32;7.50;99.90
14236;DHT22;7202;50.718;7.072;2022-11-06T07:46:02;7.60;99.90
14236;DHT22;7202;50.718;7.072;2022-11-06T07:48:33;7.60;99.90
14236;DHT22;7202;50.718;7.072;2022-11-06T07:51:04;7.70;99.90
14236;DHT22;7202;50.718;7.072;2022-11-06T07:53:33;7.70;99.90
14236;DHT22;7202;50.718;7.072;2022-11-06T07:56:02;7.80;99.90
14236;DHT22;7202;50.718;7.072;2022-11-06T07:58:32;7.80;99.90
14236;DHT22;7202;50.718;7.072;2022-11-06T08:01:01;7.90;99.90
14236;DHT22;7202;50.718;7.072;2022-11-06T08:03:30;8.00;99.90
14236;DHT22;7202;50.718;7.072;2022-11-06T08:06:02;8.00;99.90
14236;DHT22;7202;50.718;7.072;2022-11-06T08:08:31;8.10;99.90
14236;DHT22;7202;50.718;7.072;2022-11-06T08:11:01;8.20;99.90
14236;DHT22;7202;50.718;7.072;2022-11-06T08:13:29;8.30;99.90
14236;DHT22;7202;50.718;7.072;2022-11-06T08:16:03;8.50;99.90
14236;DHT22;7202;50.718;7.072;2022-11-06T08:18:33;8.60;99.90
14236;DHT22;7202;50.718;7.072;2022-11-06T08:21:03;8.70;99.90
14236;DHT22;7202;50.718;7.072;2022-11-06T08:23:33;8.70;99.90
14236;DHT22;7202;50.718;7.072;2022-11-06T08:26:04;8.80;99.90
14236;DHT22;7202;50.718;7.072;2022-11-06T08:28:33;8.80;99.90
14236;DHT22;7202;50.718;7.072;2022-11-06T08:31:03;8.90;99.90
14236;DHT22;7202;50.718;7.072;2022-11-06T08:33:32;8.90;99.90
14236;DHT22;7202;50.718;7.072;2022-11-06T08:36:03;9.00;99.90
14236;DHT22;7202;50.718;7.072;2022-11-06T08:38:32;9.00;99.90
14236;DHT22;7202;50.718;7.072;2022-11-06T08:41:03;9.10;99.90
14236;DHT22;7202;50.718;7.072;2022-11-06T08:43:33;9.20;99.90
14236;DHT22;7202;50.718;7.072;2022-11-06T08:46:02;9.20;99.90
14236;DHT22;7202;50.718;7.072;2022-11-06T08:48:32;9.30;99.90
14236;DHT22;7202;50.718;7.072;2022-11-06T08:51:02;9.40;99.90
14236;DHT22;7202;50.718;7.072;2022-11-06T08:53:33;9.40;99.90
14236;DHT22;7202;50.718;7.072;2022-11-06T08:56:03;9.50;99.90
14236;DHT22;7202;50.718;7.072;2022-11-06T08:58:32;9.60;99.90
14236;DHT22;7202;50.718;7.072;2022-11-06T09:01:00;9.60;99.90
14236;DHT22;7202;50.718;7.072;2022-11-06T09:03:29;9.70;99.90
14236;DHT22;7202;50.718;7.072;2022-11-06T09:05:58;9.70;99.90
14236;DHT22;7202;50.718;7.072;2022-11-06T09:08:27;9.70;99.90
14236;DHT22;7202;50.718;7.072;2022-11-06T09:10:56;9.70;99.90
14236;DHT22;7202;50.718;7.072;2022-11-06T09:13:25;9.80;99.90
14236;DHT22;7202;50.718;7.072;2022-11-06T09:15:53;9.80;99.90
14236;DHT22;7202;50.718;7.072;2022-11-06T09:18:22;9.90;99.90
14236;DHT22;7202;50.718;7.072;2022-11-06T09:20:53;9.90;99.90
14236;DHT22;7202;50.718;7.072;2022-11-06T09:23:23;10.00;99.90
14236;DHT22;7202;50.718;7.072;2022-11-06T09:25:53;10.00;99.90
14236;DHT22;7202;50.718;7.072;2022-11-06T09:28:22;10.10;99.90
14236;DHT22;7202;50.718;7.072;2022-11-06T09:30:50;10.10;99.90
14236;DHT22;7202;50.718;7.072;2022-11-06T09:33:20;10.20;99.90
14236;DHT22;7202;50.718;7.072;2022-11-06T09:35:49;10.30;99.90
14236;DHT22;7202;50.718;7.072;2022-11-06T09:38:17;10.30;99.90
14236;DHT22;7202;50.718;7.072;2022-11-06T09:40:49;10.30;99.90
14236;DHT22;7202;50.718;7.072;2022-11-06T09:43:26;10.40;99.90
14236;DHT22;7202;50.718;7.072;2022-11-06T09:46:21;10.40;99.90
14236;DHT22;7202;50.718;7.072;2022-11-06T09:48:55;10.50;99.90
14236;DHT22;7202;50.718;7.072;2022-11-06T09:51:32;10.60;99.90
14236;DHT22;7202;50.718;7.072;2022-11-06T09:54:09;10.70;99.90
14236;DHT22;7202;50.718;7.072;2022-11-06T09:56:41;10.80;99.90
14236;DHT22;7202;50.718;7.072;2022-11-06T09:59:16;10.80;99.90
14236;DHT22;7202;50.718;7.072;2022-11-06T10:01:47;10.90;99.90
14236;DHT22;7202;50.718;7.072;2022-11-06T10:04:34;11.00;99.90
14236;DHT22;7202;50.718;7.072;2022-11-06T10:07:03;11.00;99.90
14236;DHT22;7202;50.718;7.072;2022-11-06T10:09:33;11.00;99.90
14236;DHT22;7202;50.718;7.072;2022-11-06T10:12:10;11.00;99.90
14236;DHT22;7202;50.718;7.072;2022-11-06T10:14:51;11.00;99.90
14236;DHT22;7202;50.718;7.072;2022-11-06T10:17:32;11.10;99.90
14236;DHT22;7202;50.718;7.072;2022-11-06T10:20:11;11.20;99.90
14236;DHT22;7202;50.718;7.072;2022-11-06T10:23:03;11.20;99.90
14236;DHT22;7202;50.718;7.072;2022-11-06T10:25:44;11.10;99.90
14236;DHT22;7202;50.718;7.072;2022-11-06T10:28:23;11.10;99.90
14236;DHT22;7202;50.718;7.072;2022-11-06T10:31:02;11.10;99.90
14236;DHT22;7202;50.718;7.072;2022-11-06T10:33:43;11.10;99.90
14236;DHT22;7202;50.718;7.072;2022-11-06T10:36:16;11.10;99.90
14236;DHT22;7202;50.718;7.072;2022-11-06T10:38:48;11.10;99.90
14236;DHT22;7202;50.718;7.072;2022-11-06T10:41:20;11.20;99.90
14236;DHT22;7202;50.718;7.072;2022-11-06T10:43:52;11.10;99.90
14236;DHT22;7202;50.718;7.072;2022-11-06T10:46:27;11.20;99.90
14236;DHT22;7202;50.718;7.072;2022-11-06T10:48:59;11.20;99.90
14236;DHT22;7202;50.718;7.072;2022-11-06T10:51:42;11.10;99.90
14236;DHT22;7202;50.718;7.072;2022-11-06T10:54:31;11.10;99.90
14236;DHT22;7202;50.718;7.072;2022-11-06T10:57:15;11.10;99.90
14236;DHT22;7202;50.718;7.072;2022-11-06T10:59:47;11.10;99.90
14236;DHT22;7202;50.718;7.072;2022-11-06T11:02:24;11.10;99.90
14236;DHT22;7202;50.718;7.072;2022-11-06T11:04:54;11.10;99.90
14236;DHT22;7202;50.718;7.072;2022-11-06T11:07:27;11.10;99.90
14236;DHT22;7202;50.718;7.072;2022-11-06T11:09:56;11.10;99.90
14236;DHT22;7202;50.718;7.072;2022-11-06T11:12:27;11.10;99.90
14236;DHT22;7202;50.718;7.072;2022-11-06T11:15:11;11.20;99.90
14236;DHT22;7202;50.718;7.072;2022-11-06T11:17:41;11.20;99.90
14236;DHT22;7202;50.718;7.072;2022-11-06T11:20:34;11.20;99.90
14236;DHT22;7202;50.718;7.072;2022-11-06T11:23:05;11.30;99.90
14236;DHT22;7202;50.718;7.072;2022-11-06T11:25:34;11.40;99.90
14236;DHT22;7202;50.718;7.072;2022-11-06T11:28:03;11.30;99.90
14236;DHT22;7202;50.718;7.072;2022-11-06T11:30:32;11.40;99.90
14236;DHT22;7202;50.718;7.072;2022-11-06T11:33:11;11.40;99.90
14236;DHT22;7202;50.718;7.072;2022-11-06T11:35:46;11.50;99.90
14236;DHT22;7202;50.718;7.072;2022-11-06T11:38:18;11.50;99.90
14236;DHT22;7202;50.718;7.072;2022-11-06T11:40:48;11.60;99.90
14236;DHT22;7202;50.718;7.072;2022-11-06T11:43:23;11.60;99.90
14236;DHT22;7202;50.718;7.072;2022-11-06T11:46:04;11.60;99.90
14236;DHT22;7202;50.718;7.072;2022-11-06T11:48:45;11.70;99.90
14236;DHT22;7202;50.718;7.072;2022-11-06T11:51:28;11.80;99.90
14236;DHT22;7202;50.718;7.072;2022-11-06T11:54:04;11.90;99.90
14236;DHT22;7202;50.718;7.072;2022-11-06T11:56:43;12.10;99.90
14236;DHT22;7202;50.718;7.072;2022-11-06T11:59:36;12.20;99.90
14236;DHT22;7202;50.718;7.072;2022-11-06T12:02:13;12.40;99.90
14236;DHT22;7202;50.718;7.072;2022-11-06T12:04:49;12.50;99.90
14236;DHT22;7202;50.718;7.072;2022-11-06T12:07:22;12.60;99.90
14236;DHT22;7202;50.718;7.072;2022-11-06T12:09:52;12.70;99.90
14236;DHT22;7202;50.718;7.072;2022-11-06T12:12:22;12.70;99.90
14236;DHT22;7202;50.718;7.072;2022-11-06T12:15:05;12.70;99.90
14236;DHT22;7202;50.718;7.072;2022-11-06T12:17:36;12.70;99.90
14236;DHT22;7202;50.718;7.072;2022-11-06T12:20:18;12.80;99.90
14236;DHT22;7202;50.718;7.072;2022-11-06T12:22:49;12.60;99.90
14236;DHT22;7202;50.718;7.072;2022-11-06T12:25:23;12.60;99.90
14236;DHT22;7202;50.718;7.072;2022-11-06T12:27:54;12.50;99.90
14236;DHT22;7202;50.718;7.072;2022-11-06T12:30:24;12.60;99.90
14236;DHT22;7202;50.718;7.072;2022-11-06T12:32:59;12.50;99.90
14236;DHT22;7202;50.718;7.072;2022-11-06T12:35:31;12.50;99.90
14236;DHT22;7202;50.718;7.072;2022-11-06T12:38:09;12.50;99.90
14236;DHT22;7202;50.718;7.072;2022-11-06T12:40:42;12.50;99.90
14236;DHT22;7202;50.718;7.072;2022-11-06T12:43:19;12.50;99.90
14236;DHT22;7202;50.718;7.072;2022-11-06T12:45:57;12.50;99.90
14236;DHT22;7202;50.718;7.072;2022-11-06T12:48:45;12.40;99.90
14236;DHT22;7202;50.718;7.072;2022-11-06T12:51:26;12.40;99.90
14236;DHT22;7202;50.718;7.072;2022-11-06T12:54:06;12.40;99.90
14236;DHT22;7202;50.718;7.072;2022-11-06T12:56:44;12.40;99.90
14236;DHT22;7202;50.718;7.072;2022-11-06T12:59:25;12.50;99.90
14236;DHT22;7202;50.718;7.072;2022-11-06T13:02:13;12.50;99.90
14236;DHT22;7202;50.718;7.072;2022-11-06T13:04:51;12.40;99.90
14236;DHT22;7202;50.718;7.072;2022-11-06T13:07:57;12.50;99.90
14236;DHT22;7202;50.718;7.072;2022-11-06T13:10:36;12.50;99.90
14236;DHT22;7202;50.718;7.072;2022-11-06T13:13:25;12.50;99.90
14236;DHT22;7202;50.718;7.072;2022-11-06T13:15:59;12.50;99.90
14236;DHT22;7202;50.718;7.072;2022-11-06T13:18:34;12.40;99.90
14236;DHT22;7202;50.718;7.072;2022-11-06T13:21:09;12.40;99.90
14236;DHT22;7202;50.718;7.072;2022-11-06T13:23:46;12.40;99.90
14236;DHT22;7202;50.718;7.072;2022-11-06T13:26:25;12.30;99.90
14236;DHT22;7202;50.718;7.072;2022-11-06T13:28:57;12.30;99.90
14236;DHT22;7202;50.718;7.072;2022-11-06T13:31:32;12.30;99.90
14236;DHT22;7202;50.718;7.072;2022-11-06T13:34:03;12.30;99.90
14236;DHT22;7202;50.718;7.072;2022-11-06T13:36:35;12.20;99.90
14236;DHT22;7202;50.718;7.072;2022-11-06T13:39:11;12.30;99.90
14236;DHT22;7202;50.718;7.072;2022-11-06T13:41:41;12.30;99.90
14236;DHT22;7202;50.718;7.072;2022-11-06T13:44:12;12.30;99.90
14236;DHT22;7202;50.718;7.072;2022-11-06T13:46:51;12.30;99.90
14236;DHT22;7202;50.718;7.072;2022-11-06T13:49:30;12.30;99.90
14236;DHT22;7202;50.718;7.072;2022-11-06T13:52:07;12.30;99.90
14236;DHT22;7202;50.718;7.072;2022-11-06T13:54:50;12.30;99.90
14236;DHT22;7202;50.718;7.072;2022-11-06T13:57:43;12.30;99.90
14236;DHT22;7202;50.718;7.072;2022-11-06T14:00:19;12.20;99.90
14236;DHT22;7202;50.718;7.072;2022-11-06T14:03:08;12.10;99.90
14236;DHT22;7202;50.718;7.072;2022-11-06T14:05:50;12.10;99.90
14236;DHT22;7202;50.718;7.072;2022-11-06T14:08:25;12.10;99.90
14236;DHT22;7202;50.718;7.072;2022-11-06T14:10:58;12.00;99.90
14236;DHT22;7202;50.718;7.072;2022-11-06T14:13:31;12.00;99.90
14236;DHT22;7202;50.718;7.072;2022-11-06T14:16:10;12.00;99.90
14236;DHT22;7202;50.718;7.072;2022-11-06T14:18:55;11.90;99.90
14236;DHT22;7202;50.718;7.072;2022-11-06T14:21:43;11.80;99.90
14236;DHT22;7202;50.718;7.072;2022-11-06T14:24:36;11.80;99.90
14236;DHT22;7202;50.718;7.072;2022-11-06T14:27:10;11.70;99.90
14236;DHT22;7202;50.718;7.072;2022-11-06T14:29:55;11.70;99.90
14236;DHT22;7202;50.718;7.072;2022-11-06T14:32:45;11.60;99.90
14236;DHT22;7202;50.718;7.072;2022-11-06T14:35:48;11.60;99.90
14236;DHT22;7202;50.718;7.072;2022-11-06T14:38:41;11.60;99.90
14236;DHT22;7202;50.718;7.072;2022-11-06T14:44:31;11.50;99.90
14236;DHT22;7202;50.718;7.072;2022-11-06T14:47:02;11.60;99.90
14236;DHT22;7202;50.718;7.072;2022-11-06T14:49:39;11.50;99.90
14236;DHT22;7202;50.718;7.072;2022-11-06T14:52:14;11.50;99.90
14236;DHT22;7202;50.718;7.072;2022-11-06T14:54:51;11.40;99.90
14236;DHT22;7202;50.718;7.072;2022-11-06T14:57:44;11.40;99.90
14236;DHT22;7202;50.718;7.072;2022-11-06T15:00:33;11.40;99.90
14236;DHT22;7202;50.718;7.072;2022-11-06T15:03:04;11.30;99.90
14236;DHT22;7202;50.718;7.072;2022-11-06T15:05:35;11.30;99.90
14236;DHT22;7202;50.718;7.072;2022-11-06T15:08:09;11.30;99.90
14236;DHT22;7202;50.718;7.072;2022-11-06T15:10:49;11.30;99.90
14236;DHT22;7202;50.718;7.072;2022-11-06T15:13:26;11.30;99.90
14236;DHT22;7202;50.718;7.072;2022-11-06T15:16:11;11.20;99.90
14236;DHT22;7202;50.718;7.072;2022-11-06T15:18:43;11.20;99.90
14236;DHT22;7202;50.718;7.072;2022-11-06T15:21:19;11.20;99.90
14236;DHT22;7202;50.718;7.072;2022-11-06T15:23:56;11.20;99.90
14236;DHT22;7202;50.718;7.072;2022-11-06T15:26:33;11.10;99.90
14236;DHT22;7202;50.718;7.072;2022-11-06T15:29:23;11.10;99.90
14236;DHT22;7202;50.718;7.072;2022-11-06T15:32:01;11.10;99.90
14236;DHT22;7202;50.718;7.072;2022-11-06T15:34:35;11.00;99.90
14236;DHT22;7202;50.718;7.072;2022-11-06T15:37:09;11.00;99.90
14236;DHT22;7202;50.718;7.072;2022-11-06T15:39:40;11.00;99.90
14236;DHT22;7202;50.718;7.072;2022-11-06T15:42:14;10.90;99.90
14236;DHT22;7202;50.718;7.072;2022-11-06T15:44:44;10.90;99.90
14236;DHT22;7202;50.718;7.072;2022-11-06T15:47:22;10.90;99.90
14236;DHT22;7202;50.718;7.072;2022-11-06T15:50:07;10.90;99.90
14236;DHT22;7202;50.718;7.072;2022-11-06T15:52:41;10.90;99.90
14236;DHT22;7202;50.718;7.072;2022-11-06T15:55:11;10.90;99.90
14236;DHT22;7202;50.718;7.072;2022-11-06T15:57:50;10.90;99.90
14236;DHT22;7202;50.718;7.072;2022-11-06T16:00:20;10.90;99.90
14236;DHT22;7202;50.718;7.072;2022-11-06T16:02:59;10.80;99.90
14236;DHT22;7202;50.718;7.072;2022-11-06T16:05:30;10.80;99.90
14236;DHT22;7202;50.718;7.072;2022-11-06T16:07:59;10.80;99.90
14236;DHT22;7202;50.718;7.072;2022-11-06T16:10:28;10.80;99.90
14236;DHT22;7202;50.718;7.072;2022-11-06T16:12:57;10.80;99.90
14236;DHT22;7202;50.718;7.072;2022-11-06T16:15:48;10.70;99.90
14236;DHT22;7202;50.718;7.072;2022-11-06T16:18:21;10.70;99.90
14236;DHT22;7202;50.718;7.072;2022-11-06T16:20:54;10.70;99.90
14236;DHT22;7202;50.718;7.072;2022-11-06T16:23:26;10.60;99.90
14236;DHT22;7202;50.718;7.072;2022-11-06T16:26:07;10.60;99.90
14236;DHT22;7202;50.718;7.072;2022-11-06T16:28:41;10.50;99.90
14236;DHT22;7202;50.718;7.072;2022-11-06T16:31:13;10.40;99.90
14236;DHT22;7202;50.718;7.072;2022-11-06T16:33:54;10.40;99.90
14236;DHT22;7202;50.718;7.072;2022-11-06T16:36:23;10.40;99.90
14236;DHT22;7202;50.718;7.072;2022-11-06T16:38:52;10.30;99.90
14236;DHT22;7202;50.718;7.072;2022-11-06T16:41:57;10.30;99.90